Cap San Lorenzo — CQEV — position and weather

sailwx.info

Track history (hours):
 
Tides and Currents Weather Stations Pressure Air Temp Water Temp Dewpoint Dewpoint Depression Visibility Wind Speed Wind Dir Waves Ship Positions

Cap San Lorenzo

Last reported at 2017-Dec-10 00:00 UTC. Time now 2017-Dec-11 09:42 UTC.
Position N 08°12' W 025°18'.

Length 333 m; draft 10.9 m.

Type: Ship (hazmat cat A). MMSI: 255805699.

Wind from 050 at 13 knots

Barometer 1013.3 mb
Air temperature 23.4 ° C
Visibility: greater than 10.8 NM
Dewpoint 16.2 ° C
Water temperature 28.0 ° C

Date/timePositionNaut miles runAvg speedWind from/ knotsBaromVisibWave heightAir tempDewpointWater temp
2017-Dec-10 00:00N 08°12' W 025°18'68118.9 050 / 131013.310.8 23.416.228.0
2017-Dec-08 12:00N 18°24' W 020°12'22819.0 100 / 171016.7 5.4 26.013.325.0
2017-Dec-08 00:00N 21°48' W 018°24'20818.9 050 / 151019.7 5.4 18.810.720.0
2017-Dec-07 13:00N 24°48' W 016°30'25018.8 080 / 201024.0 5.4 18.8 5.321.0
2017-Dec-06 23:41N 28°05' W 013°37'419.4
2017-Dec-06 23:30N 28°07' W 013°35'  
2017-Dec-03 20:10N 37°56' W 009°52'318.1
2017-Dec-03 20:00N 37°59' W 009°53'2318.1
2017-Dec-03 18:46N 38°21' W 009°60'518.0
2017-Dec-03 18:30N 38°25' W 010°01'918.1
2017-Dec-03 18:00N 38°34' W 010°04'918.0
2017-Dec-03 17:30N 38°43' W 010°06'918.2
2017-Dec-03 17:00N 38°52' W 010°07'1019.1
2017-Dec-03 16:30N 39°01' W 010°07'918.6
2017-Dec-03 16:00N 39°10' W 010°06'6816.8
2017-Dec-03 12:00N 40°18' W 010°06'56418.2 140 / 161030.527.0 13.3 3.915.0
2017-Dec-02 05:05N 49°04' W 005°21'215.6
2017-Dec-02 04:58N 49°05' W 005°18'2014.8
2017-Dec-02 03:35N 49°15' W 004°51'5516.7
2017-Dec-02 00:17N 49°43' W 003°38'818.6
2017-Dec-01 23:53N 49°47' W 003°28'719.1
2017-Dec-01 23:30N 49°50' W 003°18'1019.5
2017-Dec-01 23:00N 49°55' W 003°05'1019.3
2017-Dec-01 22:30N 49°58' W 002°51'1019.2
2017-Dec-01 22:00N 50°01' W 002°37'918.6
2017-Dec-01 21:30N 50°03' W 002°22'1217.3
2017-Dec-01 20:49N 50°03' W 002°04'516.3
2017-Dec-01 20:30N 50°01' W 001°56'713.8
2017-Dec-01 20:01N 49°59' W 001°47'815.7
2017-Dec-01 19:30N 49°56' W 001°35'714.1
2017-Dec-01 19:01N 49°53' W 001°25'2 4.9
2017-Dec-01 18:30N 49°52' W 001°22'713.9
2017-Dec-01 18:01N 49°49' W 001°12'714.2
2017-Dec-01 17:30N 49°47' W 001°02'2 4.9
2017-Dec-01 17:00N 49°45' W 000°59'2 5.0
2017-Dec-01 16:30N 49°44' W 000°56'816.1
2017-Dec-01 16:00N 49°41' W 000°44'816.2
2017-Dec-01 15:30N 49°37' W 000°33'917.6
2017-Dec-01 15:00N 49°35' W 000°20'917.3
2017-Dec-01 14:30N 49°32' W 000°07'714.1
2017-Dec-01 14:00N 49°30' E 000°03'4 8.3
2017-Dec-01 13:30N 49°28' E 000°09'1 1.4
2017-Dec-01 13:00N 49°29' E 000°10'0 0.0
2017-Dec-01 12:29N 49°29' E 000°10'0 0.0
2017-Dec-01 11:59N 49°29' E 000°10'0 0.0
2017-Dec-01 11:28N 49°29' E 000°10'0 0.0
2017-Dec-01 10:58N 49°29' E 000°10'0 0.0
2017-Dec-01 10:28N 49°29' E 000°10'0 0.0
2017-Dec-01 09:59N 49°29' E 000°10'0 0.0
2017-Dec-01 09:29N 49°29' E 000°10'0 0.0
2017-Dec-01 08:59N 49°29' E 000°10'0 0.0
2017-Dec-01 08:28N 49°29' E 000°10'0 0.0
2017-Dec-01 07:58N 49°29' E 000°10'0 0.0
2017-Dec-01 07:28N 49°29' E 000°10'0 0.0
2017-Dec-01 06:59N 49°29' E 000°10'0 0.0
2017-Dec-01 06:28N 49°29' E 000°10'0 0.0
2017-Dec-01 05:58N 49°29' E 000°10'0 0.0
2017-Dec-01 05:28N 49°29' E 000°10'0 0.0
2017-Dec-01 04:58N 49°29' E 000°10'0 0.0
2017-Dec-01 04:28N 49°29' E 000°10'0 0.0
2017-Dec-01 03:58N 49°29' E 000°10'0 0.0
2017-Dec-01 03:28N 49°29' E 000°10'0 0.0
2017-Dec-01 02:58N 49°29' E 000°10'0 0.0
2017-Dec-01 02:28N 49°29' E 000°10'0 0.0
2017-Dec-01 01:58N 49°29' E 000°10'0 0.0
2017-Dec-01 01:28N 49°29' E 000°10'0 0.0
2017-Dec-01 00:58N 49°29' E 000°10'0 0.0
2017-Dec-01 00:28N 49°29' E 000°10'0 0.0
2017-Nov-30 23:58N 49°29' E 000°10'0 0.0
2017-Nov-30 23:28N 49°29' E 000°10'0 0.0
2017-Nov-30 22:58N 49°29' E 000°10'0 0.0
2017-Nov-30 22:28N 49°29' E 000°10'0 0.0
2017-Nov-30 21:58N 49°29' E 000°10'0 0.0
2017-Nov-30 21:28N 49°29' E 000°10'0 0.0
2017-Nov-30 20:59N 49°29' E 000°10'0 0.0
2017-Nov-30 20:30N 49°29' E 000°10'1 1.7
2017-Nov-30 20:01N 49°28' E 000°09'4 8.0
2017-Nov-30 19:30N 49°30' E 000°03'613.0
2017-Nov-30 19:00N 49°33' W 000°06'3 5.5
2017-Nov-30 18:30N 49°35' W 000°05'3 6.8
2017-Nov-30 18:00N 49°39' W 000°07'4 8.4
2017-Nov-30 17:30N 49°43' W 000°08'611.9
2017-Nov-30 17:00N 49°49' W 000°10'713.3
2017-Nov-30 16:30N 49°55' W 000°12'713.5
2017-Nov-30 16:00N 50°01' W 000°16'713.4
2017-Nov-30 15:30N 50°08' W 000°18'713.3
2017-Nov-30 15:00N 50°15' W 000°20'712.9
2017-Nov-30 14:30N 50°21' W 000°19'612.2
2017-Nov-30 14:00N 50°26' W 000°13'713.1
2017-Nov-30 13:30N 50°28' W 000°03'713.3
2017-Nov-30 13:00N 50°30' E 000°06'713.7
2017-Nov-30 12:30N 50°32' E 000°17'713.9
2017-Nov-30 12:00N 50°34' E 000°27'713.5
2017-Nov-30 11:30N 50°37' E 000°37'713.7
2017-Nov-30 11:00N 50°40' E 000°46'713.3
2017-Nov-30 10:30N 50°44' E 000°55'612.9
2017-Nov-30 10:00N 50°48' E 001°03'612.3
2017-Nov-30 09:30N 50°51' E 001°11'611.8
2017-Nov-30 09:00N 50°55' E 001°18'612.0
2017-Nov-30 08:30N 50°59' E 001°25'612.8
2017-Nov-30 08:00N 51°04' E 001°32'713.1
2017-Nov-30 07:30N 51°09' E 001°39'713.6
2017-Nov-30 07:00N 51°14' E 001°47'714.7
2017-Nov-30 06:30N 51°20' E 001°53'714.2
2017-Nov-30 06:00N 51°25' E 002°01'612.7
2017-Nov-30 05:30N 51°22' E 002°10'612.3
2017-Nov-30 05:00N 51°20' E 002°19'714.3
2017-Nov-30 04:30N 51°23' E 002°30'713.2
2017-Nov-30 04:01N 51°23' E 002°40'612.2
2017-Nov-30 03:31N 51°25' E 002°49'816.0
2017-Nov-30 03:01N 51°25' E 003°02'816.0
2017-Nov-30 02:31N 51°25' E 003°15'917.2
2017-Nov-30 02:01N 51°25' E 003°29'510.3
2017-Nov-30 01:30N 51°26' E 003°37'612.6
2017-Nov-30 01:00N 51°22' E 003°45'714.8
2017-Nov-30 00:30N 51°23' E 003°57'4 7.2
2017-Nov-30 00:00N 51°24' E 004°02'  
Track history (hours):
 
Tides and Currents Weather Stations Pressure Air Temp Water Temp Dewpoint Dewpoint Depression Visibility Wind Speed Wind Dir Waves Ship Positions

Cap San Lorenzo

Last reported at 2017-Dec-10 00:00 UTC. Time now 2017-Dec-11 09:42 UTC.
Position N 08°12' W 025°18'.

Length 333 m; draft 10.9 m.

Type: Ship (hazmat cat A). MMSI: 255805699.

Wind from 050 at 13 knots

Barometer 1013.3 mb
Air temperature 23.4 ° C
Visibility: greater than 10.8 NM
Dewpoint 16.2 ° C
Water temperature 28.0 ° C

Date/timePositionNaut miles runAvg speedWind from/ knotsBaromVisibWave heightAir tempDewpointWater temp
2017-Dec-10 00:00N 08°12' W 025°18'68118.9 050 / 131013.310.8 23.416.228.0
2017-Dec-08 12:00N 18°24' W 020°12'22819.0 100 / 171016.7 5.4 26.013.325.0
2017-Dec-08 00:00N 21°48' W 018°24'20818.9 050 / 151019.7 5.4 18.810.720.0
2017-Dec-07 13:00N 24°48' W 016°30'25018.8 080 / 201024.0 5.4 18.8 5.321.0
2017-Dec-06 23:41N 28°05' W 013°37'419.4
2017-Dec-06 23:30N 28°07' W 013°35'  
2017-Dec-03 20:10N 37°56' W 009°52'318.1
2017-Dec-03 20:00N 37°59' W 009°53'2318.1
2017-Dec-03 18:46N 38°21' W 009°60'518.0
2017-Dec-03 18:30N 38°25' W 010°01'918.1
2017-Dec-03 18:00N 38°34' W 010°04'918.0
2017-Dec-03 17:30N 38°43' W 010°06'918.2
2017-Dec-03 17:00N 38°52' W 010°07'1019.1
2017-Dec-03 16:30N 39°01' W 010°07'918.6
2017-Dec-03 16:00N 39°10' W 010°06'6816.8
2017-Dec-03 12:00N 40°18' W 010°06'56418.2 140 / 161030.527.0 13.3 3.915.0
2017-Dec-02 05:05N 49°04' W 005°21'215.6
2017-Dec-02 04:58N 49°05' W 005°18'2014.8
2017-Dec-02 03:35N 49°15' W 004°51'5516.7
2017-Dec-02 00:17N 49°43' W 003°38'818.6
2017-Dec-01 23:53N 49°47' W 003°28'719.1
2017-Dec-01 23:30N 49°50' W 003°18'1019.5
2017-Dec-01 23:00N 49°55' W 003°05'1019.3
2017-Dec-01 22:30N 49°58' W 002°51'1019.2
2017-Dec-01 22:00N 50°01' W 002°37'918.6
2017-Dec-01 21:30N 50°03' W 002°22'1217.3
2017-Dec-01 20:49N 50°03' W 002°04'516.3
2017-Dec-01 20:30N 50°01' W 001°56'713.8
2017-Dec-01 20:01N 49°59' W 001°47'815.7
2017-Dec-01 19:30N 49°56' W 001°35'714.1
2017-Dec-01 19:01N 49°53' W 001°25'2 4.9
2017-Dec-01 18:30N 49°52' W 001°22'713.9
2017-Dec-01 18:01N 49°49' W 001°12'714.2
2017-Dec-01 17:30N 49°47' W 001°02'2 4.9
2017-Dec-01 17:00N 49°45' W 000°59'2 5.0
2017-Dec-01 16:30N 49°44' W 000°56'816.1
2017-Dec-01 16:00N 49°41' W 000°44'816.2
2017-Dec-01 15:30N 49°37' W 000°33'917.6
2017-Dec-01 15:00N 49°35' W 000°20'917.3
2017-Dec-01 14:30N 49°32' W 000°07'714.1
2017-Dec-01 14:00N 49°30' E 000°03'4 8.3
2017-Dec-01 13:30N 49°28' E 000°09'1 1.4
2017-Dec-01 13:00N 49°29' E 000°10'0 0.0
2017-Dec-01 12:29N 49°29' E 000°10'0 0.0
2017-Dec-01 11:59N 49°29' E 000°10'0 0.0
2017-Dec-01 11:28N 49°29' E 000°10'0 0.0
2017-Dec-01 10:58N 49°29' E 000°10'0 0.0
2017-Dec-01 10:28N 49°29' E 000°10'0 0.0
2017-Dec-01 09:59N 49°29' E 000°10'0 0.0
2017-Dec-01 09:29N 49°29' E 000°10'0 0.0
2017-Dec-01 08:59N 49°29' E 000°10'0 0.0
2017-Dec-01 08:28N 49°29' E 000°10'0 0.0
2017-Dec-01 07:58N 49°29' E 000°10'0 0.0
2017-Dec-01 07:28N 49°29' E 000°10'0 0.0
2017-Dec-01 06:59N 49°29' E 000°10'0 0.0
2017-Dec-01 06:28N 49°29' E 000°10'0 0.0
2017-Dec-01 05:58N 49°29' E 000°10'0 0.0
2017-Dec-01 05:28N 49°29' E 000°10'0 0.0
2017-Dec-01 04:58N 49°29' E 000°10'0 0.0
2017-Dec-01 04:28N 49°29' E 000°10'0 0.0
2017-Dec-01 03:58N 49°29' E 000°10'0 0.0
2017-Dec-01 03:28N 49°29' E 000°10'0 0.0
2017-Dec-01 02:58N 49°29' E 000°10'0 0.0
2017-Dec-01 02:28N 49°29' E 000°10'0 0.0
2017-Dec-01 01:58N 49°29' E 000°10'0 0.0
2017-Dec-01 01:28N 49°29' E 000°10'0 0.0
2017-Dec-01 00:58N 49°29' E 000°10'0 0.0
2017-Dec-01 00:28N 49°29' E 000°10'0 0.0
2017-Nov-30 23:58N 49°29' E 000°10'0 0.0
2017-Nov-30 23:28N 49°29' E 000°10'0 0.0
2017-Nov-30 22:58N 49°29' E 000°10'0 0.0
2017-Nov-30 22:28N 49°29' E 000°10'0 0.0
2017-Nov-30 21:58N 49°29' E 000°10'0 0.0
2017-Nov-30 21:28N 49°29' E 000°10'0 0.0
2017-Nov-30 20:59N 49°29' E 000°10'0 0.0
2017-Nov-30 20:30N 49°29' E 000°10'1 1.7
2017-Nov-30 20:01N 49°28' E 000°09'4 8.0
2017-Nov-30 19:30N 49°30' E 000°03'613.0
2017-Nov-30 19:00N 49°33' W 000°06'3 5.5
2017-Nov-30 18:30N 49°35' W 000°05'3 6.8
2017-Nov-30 18:00N 49°39' W 000°07'4 8.4
2017-Nov-30 17:30N 49°43' W 000°08'611.9
2017-Nov-30 17:00N 49°49' W 000°10'713.3
2017-Nov-30 16:30N 49°55' W 000°12'713.5
2017-Nov-30 16:00N 50°01' W 000°16'713.4
2017-Nov-30 15:30N 50°08' W 000°18'713.3
2017-Nov-30 15:00N 50°15' W 000°20'712.9
2017-Nov-30 14:30N 50°21' W 000°19'612.2
2017-Nov-30 14:00N 50°26' W 000°13'713.1
2017-Nov-30 13:30N 50°28' W 000°03'713.3
2017-Nov-30 13:00N 50°30' E 000°06'713.7
2017-Nov-30 12:30N 50°32' E 000°17'713.9
2017-Nov-30 12:00N 50°34' E 000°27'713.5
2017-Nov-30 11:30N 50°37' E 000°37'713.7
2017-Nov-30 11:00N 50°40' E 000°46'713.3
2017-Nov-30 10:30N 50°44' E 000°55'612.9
2017-Nov-30 10:00N 50°48' E 001°03'612.3
2017-Nov-30 09:30N 50°51' E 001°11'611.8
2017-Nov-30 09:00N 50°55' E 001°18'612.0
2017-Nov-30 08:30N 50°59' E 001°25'612.8
2017-Nov-30 08:00N 51°04' E 001°32'713.1
2017-Nov-30 07:30N 51°09' E 001°39'713.6
2017-Nov-30 07:00N 51°14' E 001°47'714.7
2017-Nov-30 06:30N 51°20' E 001°53'714.2
2017-Nov-30 06:00N 51°25' E 002°01'612.7
2017-Nov-30 05:30N 51°22' E 002°10'612.3
2017-Nov-30 05:00N 51°20' E 002°19'714.3
2017-Nov-30 04:30N 51°23' E 002°30'713.2
2017-Nov-30 04:01N 51°23' E 002°40'612.2
2017-Nov-30 03:31N 51°25' E 002°49'816.0
2017-Nov-30 03:01N 51°25' E 003°02'816.0
2017-Nov-30 02:31N 51°25' E 003°15'917.2
2017-Nov-30 02:01N 51°25' E 003°29'510.3
2017-Nov-30 01:30N 51°26' E 003°37'612.6
2017-Nov-30 01:00N 51°22' E 003°45'714.8
2017-Nov-30 00:30N 51°23' E 003°57'4 7.2
2017-Nov-30 00:00N 51°24' E 004°02'  

Dump ship's entire track history